createdAt,value
2022-08-17T00:02:26.120Z,56.90
2022-08-17T00:05:33.384Z,56.94
2022-08-17T00:08:39.972Z,56.94
2022-08-17T00:12:40.598Z,57.01
2022-08-17T00:15:08.336Z,57.07
2022-08-17T00:19:06.565Z,57.21
2022-08-17T00:21:56.363Z,57.37
2022-08-17T00:25:07.230Z,57.47
2022-08-17T00:28:09.987Z,57.74
2022-08-17T00:31:13.236Z,57.87
2022-08-17T00:34:15.971Z,57.74
2022-08-17T00:37:18.882Z,57.58
2022-08-17T00:40:21.492Z,57.63
2022-08-17T00:43:35.091Z,57.81
2022-08-17T00:46:41.033Z,57.82
2022-08-17T00:49:44.223Z,57.82
2022-08-17T00:52:54.915Z,57.58
2022-08-17T00:56:01.660Z,57.14
2022-08-17T00:59:07.188Z,57.08
2022-08-17T01:02:14.070Z,57.37
2022-08-17T01:05:23.736Z,57.70
2022-08-17T01:08:31.006Z,57.84
2022-08-17T01:11:36.186Z,57.91
2022-08-17T01:14:41.112Z,57.59
2022-08-17T01:17:45.930Z,57.65
2022-08-17T01:20:51.984Z,57.79
2022-08-17T01:23:54.674Z,57.43
2022-08-17T01:26:57.729Z,57.59
2022-08-17T01:30:02.632Z,57.08
2022-08-17T01:33:05.840Z,57.23
2022-08-17T01:36:09.432Z,56.72
2022-08-17T01:39:23.255Z,56.75
2022-08-17T01:42:38.316Z,56.66
2022-08-17T01:45:44.917Z,56.86
2022-08-17T01:48:47.670Z,57.09
2022-08-17T01:51:51.204Z,57.11
2022-08-17T01:54:54.163Z,57.23
2022-08-17T01:57:57.103Z,57.29
2022-08-17T02:01:02.608Z,57.32
2022-08-17T02:04:08.370Z,57.35
2022-08-17T02:07:10.812Z,57.32
2022-08-17T02:10:20.034Z,57.22
2022-08-17T02:13:23.301Z,57.17
2022-08-17T02:16:26.238Z,57.14
2022-08-17T02:19:39.052Z,57.06
2022-08-17T02:22:44.925Z,57.21
2022-08-17T02:25:50.571Z,57.23
2022-08-17T02:28:53.702Z,57.40
2022-08-17T02:31:58.595Z,57.13
2022-08-17T02:35:01.985Z,57.21
2022-08-17T02:38:06.152Z,57.36
2022-08-17T02:41:09.591Z,57.54
2022-08-17T02:44:12.207Z,57.66
2022-08-17T02:47:15.163Z,57.63
2022-08-17T02:50:24.178Z,57.40
2022-08-17T02:53:27.625Z,57.42
2022-08-17T02:56:38.572Z,57.49
2022-08-17T02:59:46.729Z,57.60
2022-08-17T03:02:51.998Z,57.62
2022-08-17T03:05:55.144Z,57.71
2022-08-17T03:08:57.815Z,57.86
2022-08-17T03:12:12.472Z,58.19
2022-08-17T03:15:19.487Z,58.13
2022-08-17T03:18:25.582Z,58.34
2022-08-17T03:21:28.700Z,58.70
2022-08-17T03:24:31.753Z,59.01
2022-08-17T03:27:34.183Z,59.23
2022-08-17T03:30:37.128Z,59.38
2022-08-17T03:33:39.606Z,59.46
2022-08-17T03:36:42.697Z,59.74
2022-08-17T03:39:45.573Z,59.79
2022-08-17T03:42:48.805Z,59.75
2022-08-17T03:46:11.031Z,59.68
2022-08-17T03:49:50.520Z,59.64
2022-08-17T03:53:11.843Z,59.66
2022-08-17T03:56:33.120Z,59.58
2022-08-17T03:59:36.660Z,59.18
2022-08-17T04:02:40.446Z,58.93
2022-08-17T04:05:43.540Z,58.55
2022-08-17T04:08:46.181Z,58.06
2022-08-17T04:11:48.854Z,58.16
2022-08-17T04:14:54.679Z,58.61
2022-08-17T04:17:58.061Z,58.90
2022-08-17T04:21:00.739Z,58.96
2022-08-17T04:24:05.152Z,59.17
2022-08-17T04:27:07.804Z,59.16
2022-08-17T04:30:10.761Z,59.20
2022-08-17T04:33:17.045Z,59.01
2022-08-17T04:36:21.116Z,59.08
2022-08-17T04:39:26.622Z,58.99
2022-08-17T04:42:29.373Z,59.34
2022-08-17T04:45:32.618Z,59.63
2022-08-17T04:48:38.287Z,59.46
2022-08-17T04:51:54.536Z,59.48
2022-08-17T04:55:04.121Z,58.86
2022-08-17T04:58:07.619Z,58.78
2022-08-17T05:01:10.530Z,58.75
2022-08-17T05:04:32.875Z,58.41
2022-08-17T05:07:37.308Z,58.40
2022-08-17T05:10:45.406Z,58.47
2022-08-17T05:13:50.300Z,58.79
2022-08-17T05:16:53.189Z,58.75
2022-08-17T05:19:55.929Z,58.46
2022-08-17T05:23:01.684Z,57.90
2022-08-17T05:26:04.972Z,57.63
2022-08-17T05:29:10.500Z,57.22
2022-08-17T05:32:39.691Z,57.25
2022-08-17T05:35:39.540Z,56.90
2022-08-17T05:38:42.378Z,56.44
2022-08-17T05:41:47.127Z,56.52
2022-08-17T05:44:49.925Z,56.28
2022-08-17T05:47:52.643Z,56.13
2022-08-17T05:51:00.803Z,55.49
2022-08-17T05:54:14.056Z,55.67
2022-08-17T05:57:35.809Z,55.53
2022-08-17T06:01:01.684Z,54.95
2022-08-17T06:04:23.191Z,54.63
2022-08-17T06:07:49.680Z,54.39
2022-08-17T06:11:16.069Z,54.14
2022-08-17T06:14:36.255Z,53.53
2022-08-17T06:17:39.466Z,52.49
2022-08-17T06:20:56.379Z,51.80
2022-08-17T06:24:23.705Z,51.71
2022-08-17T06:27:38.159Z,51.55
2022-08-17T06:30:59.790Z,51.25
2022-08-17T06:34:08.253Z,50.18
2022-08-17T06:37:48.859Z,49.81
2022-08-17T06:41:02.338Z,48.70
2022-08-17T06:44:50.164Z,48.64
2022-08-17T06:48:24.421Z,48.33
2022-08-17T06:51:34.667Z,47.75
2022-08-17T06:54:39.922Z,47.16
2022-08-17T06:57:47.701Z,46.30
2022-08-17T07:00:58.489Z,45.97
2022-08-17T07:04:15.606Z,45.23
2022-08-17T07:07:39.378Z,44.32
2022-08-17T07:10:52.645Z,43.38
2022-08-17T07:13:58.152Z,42.73
2022-08-17T07:17:06.688Z,40.80
2022-08-17T07:20:14.945Z,40.15
2022-08-17T07:23:30.153Z,40.13
2022-08-17T07:26:32.885Z,39.93
2022-08-17T07:29:49.572Z,39.18
2022-08-17T07:33:02.264Z,38.32
2022-08-17T07:36:05.726Z,37.63
2022-08-17T07:39:09.826Z,36.79
2022-08-17T07:42:12.738Z,36.04
2022-08-17T07:45:35.416Z,35.40
2022-08-17T07:48:40.820Z,34.65
2022-08-17T07:51:43.735Z,33.69
2022-08-17T07:54:46.851Z,32.25
2022-08-17T07:57:57.575Z,32.03
2022-08-17T08:01:10.867Z,31.77
2022-08-17T08:04:49.885Z,30.99
2022-08-17T08:07:57.112Z,29.58
2022-08-17T08:11:04.365Z,28.64
2022-08-17T08:14:30.231Z,27.69
2022-08-17T08:17:45.164Z,27.36
2022-08-17T08:20:54.120Z,26.15
2022-08-17T08:24:20.758Z,26.04
2022-08-17T08:27:40.590Z,25.32
2022-08-17T08:30:50.551Z,24.49
2022-08-17T08:34:58.678Z,23.96
2022-08-17T08:38:07.622Z,23.17
2022-08-17T08:41:34.890Z,23.04
2022-08-17T08:45:00.231Z,23.01
2022-08-17T08:48:22.986Z,22.05
2022-08-17T08:51:57.622Z,21.91
2022-08-17T08:55:15.444Z,20.80
2022-08-17T08:58:51.601Z,20.54
2022-08-17T09:02:18.611Z,18.78
2022-08-17T09:05:27.183Z,18.80
2022-08-17T09:08:48.279Z,18.57
2022-08-17T09:12:08.574Z,18.81
2022-08-17T09:15:27.644Z,18.48
2022-08-17T09:19:02.653Z,17.82
2022-08-17T09:22:20.802Z,17.52
2022-08-17T09:25:29.460Z,16.95
2022-08-17T09:28:42.640Z,16.25
2022-08-17T09:32:17.712Z,15.94
2022-08-17T09:35:25.202Z,15.88
2022-08-17T09:39:01.140Z,15.49
2022-08-17T09:42:14.317Z,15.61
2022-08-17T09:45:42.628Z,15.25
2022-08-17T09:48:57.501Z,15.22
2022-08-17T09:52:23.535Z,14.88
2022-08-17T09:55:52.703Z,14.58
2022-08-17T09:59:17.240Z,14.46
2022-08-17T10:02:40.455Z,14.15
2022-08-17T10:06:02.802Z,14.17
2022-08-17T10:09:22.185Z,13.60
2022-08-17T10:12:30.439Z,13.02
2022-08-17T10:15:46.799Z,13.54
2022-08-17T10:19:08.346Z,13.02
2022-08-17T10:22:44.042Z,12.30
2022-08-17T10:26:04.834Z,11.88
2022-08-17T10:29:11.235Z,11.73
2022-08-17T10:32:32.865Z,12.11
2022-08-17T10:35:43.890Z,12.58
2022-08-17T10:38:49.911Z,14.05
2022-08-17T10:41:57.439Z,13.65
2022-08-17T10:45:15.708Z,12.48
2022-08-17T10:48:26.312Z,12.88
2022-08-17T10:51:41.173Z,12.70
2022-08-17T10:55:06.294Z,12.28
2022-08-17T10:58:22.229Z,12.18
2022-08-17T11:01:38.107Z,11.70
2022-08-17T11:05:06.302Z,11.95
2022-08-17T11:08:30.763Z,12.28
2022-08-17T11:11:56.279Z,12.17
2022-08-17T11:15:23.146Z,12.31
2022-08-17T11:19:08.553Z,12.33
2022-08-17T11:22:20.151Z,12.54
2022-08-17T11:26:08.602Z,12.82
2022-08-17T11:29:24.622Z,13.26
2022-08-17T11:32:27.840Z,13.92
2022-08-17T11:35:47.193Z,13.63
2022-08-17T11:39:01.785Z,13.69
2022-08-17T11:42:38.846Z,14.05
2022-08-17T11:45:57.251Z,13.27
2022-08-17T11:49:40.887Z,12.97
2022-08-17T11:52:47.403Z,13.36
2022-08-17T11:55:52.939Z,13.39
2022-08-17T11:58:56.793Z,13.21
2022-08-17T12:02:01.868Z,13.48
2022-08-17T12:05:17.074Z,13.37
2022-08-17T12:08:21.904Z,13.07
2022-08-17T12:12:13.461Z,13.22
2022-08-17T12:15:28.851Z,14.48
2022-08-17T12:18:35.841Z,15.42
2022-08-17T12:21:48.909Z,15.72
2022-08-17T12:25:16.373Z,15.26
2022-08-17T12:28:29.479Z,15.03
2022-08-17T12:31:43.582Z,14.46
2022-08-17T12:34:48.738Z,14.64
2022-08-17T12:37:52.136Z,15.24
2022-08-17T12:40:57.997Z,15.18
2022-08-17T12:44:15.297Z,14.53
2022-08-17T12:47:22.311Z,15.05
2022-08-17T12:50:28.274Z,13.83
2022-08-17T12:53:35.810Z,14.65
2022-08-17T12:56:39.227Z,15.48
2022-08-17T12:59:45.932Z,15.38
2022-08-17T13:02:53.984Z,15.02
2022-08-17T13:06:08.065Z,15.20
2022-08-17T13:09:14.394Z,15.17
2022-08-17T13:12:26.448Z,14.96
2022-08-17T13:15:38.211Z,14.89
2022-08-17T13:18:50.390Z,15.02
2022-08-17T13:21:56.899Z,15.39
2022-08-17T13:25:07.342Z,15.87
2022-08-17T13:28:18.983Z,15.95
2022-08-17T13:31:52.099Z,16.32
2022-08-17T13:35:12.325Z,17.05
2022-08-17T13:38:47.173Z,17.90
2022-08-17T13:41:55.392Z,17.73
2022-08-17T13:44:58.808Z,18.46
2022-08-17T13:48:11.121Z,18.83
2022-08-17T13:51:29.046Z,19.71
2022-08-17T13:54:33.208Z,19.44
2022-08-17T13:57:36.258Z,18.51
2022-08-17T14:00:40.378Z,17.88
2022-08-17T14:03:44.361Z,18.80
2022-08-17T14:07:01.534Z,18.65
2022-08-17T14:10:06.389Z,18.62
2022-08-17T14:13:09.174Z,18.33
2022-08-17T14:16:11.993Z,17.96
2022-08-17T14:19:15.100Z,18.39
2022-08-17T14:22:30.636Z,18.34
2022-08-17T14:25:33.329Z,18.41
2022-08-17T14:28:38.695Z,18.29
2022-08-17T14:31:58.000Z,17.86
2022-08-17T14:35:04.802Z,18.27
2022-08-17T14:38:07.963Z,18.29
2022-08-17T14:41:11.416Z,18.74
2022-08-17T14:44:14.248Z,18.87
2022-08-17T14:47:17.420Z,18.68
2022-08-17T14:50:21.200Z,18.57
2022-08-17T14:53:25.110Z,18.34
2022-08-17T14:56:28.011Z,18.87
2022-08-17T14:59:38.184Z,19.09
2022-08-17T15:02:55.912Z,18.92
2022-08-17T15:05:59.553Z,18.93
2022-08-17T15:09:02.383Z,19.18
2022-08-17T15:12:06.651Z,19.34
2022-08-17T15:15:13.312Z,19.65
2022-08-17T15:18:16.330Z,20.11
2022-08-17T15:21:19.080Z,20.00
2022-08-17T15:24:21.826Z,19.81
2022-08-17T15:27:32.245Z,20.20
2022-08-17T15:30:35.825Z,20.21
2022-08-17T15:33:38.827Z,19.58
2022-08-17T15:36:49.002Z,19.94
2022-08-17T15:39:52.376Z,20.44
2022-08-17T15:42:55.304Z,20.60
2022-08-17T15:46:12.605Z,20.85
2022-08-17T15:49:17.145Z,20.63
2022-08-17T15:52:24.193Z,20.88
2022-08-17T15:55:30.087Z,20.94
2022-08-17T15:58:34.904Z,21.47
2022-08-17T16:02:53.879Z,21.09
2022-08-17T16:05:12.209Z,21.12
2022-08-17T16:08:20.896Z,21.61
2022-08-17T16:11:26.413Z,22.03
2022-08-17T16:14:32.546Z,22.34
2022-08-17T16:17:40.232Z,22.67
2022-08-17T16:20:44.178Z,22.49
2022-08-17T16:23:49.796Z,22.57
2022-08-17T16:26:52.267Z,22.80
2022-08-17T16:29:55.532Z,21.66
2022-08-17T16:33:00.252Z,22.22
2022-08-17T16:36:08.453Z,22.31
2022-08-17T16:39:10.984Z,22.60
2022-08-17T16:42:31.890Z,22.54
2022-08-17T16:45:36.923Z,23.16
2022-08-17T16:48:40.020Z,23.43
2022-08-17T16:51:42.599Z,23.66
2022-08-17T16:54:47.005Z,24.15
2022-08-17T16:57:50.625Z,23.59
2022-08-17T17:00:54.362Z,23.85
2022-08-17T17:04:02.137Z,23.80
2022-08-17T17:07:33.971Z,24.00
2022-08-17T17:10:46.068Z,24.25
2022-08-17T17:14:01.605Z,24.35
2022-08-17T17:17:11.870Z,24.33
2022-08-17T17:20:22.786Z,24.63
2022-08-17T17:23:35.151Z,24.84
2022-08-17T17:26:47.120Z,24.98
2022-08-17T17:30:07.618Z,25.27
2022-08-17T17:33:42.886Z,25.28
2022-08-17T17:36:54.577Z,25.35
2022-08-17T17:40:00.580Z,25.35
2022-08-17T17:43:34.802Z,25.60
2022-08-17T17:46:37.981Z,25.38
2022-08-17T17:49:43.955Z,25.66
2022-08-17T17:53:08.849Z,26.13
2022-08-17T17:56:43.331Z,26.23
2022-08-17T18:00:00.532Z,26.40
2022-08-17T18:03:39.843Z,26.44
2022-08-17T18:07:04.387Z,26.19
2022-08-17T18:11:04.975Z,26.84
2022-08-17T18:14:46.349Z,26.75
2022-08-17T18:18:14.127Z,26.79
2022-08-17T18:21:22.247Z,26.96
2022-08-17T18:24:38.081Z,27.04
2022-08-17T18:27:51.243Z,27.26
2022-08-17T18:31:26.611Z,27.22
2022-08-17T18:34:47.153Z,27.24
2022-08-17T18:37:53.928Z,27.49
2022-08-17T18:41:05.433Z,27.82
2022-08-17T18:44:35.531Z,28.29
2022-08-17T18:47:54.054Z,28.51
2022-08-17T18:51:00.928Z,28.82
2022-08-17T18:54:18.284Z,29.14
2022-08-17T18:57:31.455Z,29.22
2022-08-17T19:00:40.280Z,29.36
2022-08-17T19:03:43.492Z,29.63
2022-08-17T19:06:46.645Z,29.85
2022-08-17T19:10:28.767Z,30.01
2022-08-17T19:13:36.969Z,30.07
2022-08-17T19:17:05.469Z,30.24
2022-08-17T19:20:19.869Z,29.61
2022-08-17T19:23:31.021Z,29.43
2022-08-17T19:26:54.572Z,29.52
2022-08-17T19:30:07.499Z,29.75
2022-08-17T19:33:11.969Z,29.70
2022-08-17T19:36:25.648Z,30.12
2022-08-17T19:39:40.568Z,30.51
2022-08-17T19:43:10.056Z,30.60
2022-08-17T19:46:41.182Z,30.98
2022-08-17T19:50:07.362Z,30.52
2022-08-17T19:53:47.457Z,30.97
2022-08-17T19:57:39.482Z,31.08
2022-08-17T20:00:51.181Z,30.60
2022-08-17T20:04:03.381Z,30.61
2022-08-17T20:07:30.185Z,30.82
2022-08-17T20:10:48.120Z,31.03
2022-08-17T20:14:09.742Z,31.51
2022-08-17T20:17:12.900Z,31.85
2022-08-17T20:20:36.763Z,31.96
2022-08-17T20:23:53.534Z,31.72
2022-08-17T20:27:00.892Z,32.04
2022-08-17T20:30:11.788Z,32.34
2022-08-17T20:33:37.107Z,32.48
2022-08-17T20:36:57.128Z,32.70
2022-08-17T20:39:59.753Z,32.69
2022-08-17T20:43:33.583Z,32.87
2022-08-17T20:46:37.106Z,33.54
2022-08-17T20:49:44.510Z,34.16
2022-08-17T20:52:59.776Z,34.21
2022-08-17T20:56:02.632Z,34.21
2022-08-17T20:59:07.615Z,34.16
2022-08-17T21:02:19.381Z,34.35
2022-08-17T21:05:34.801Z,34.81
2022-08-17T21:09:19.009Z,35.10
2022-08-17T21:12:42.221Z,35.27
2022-08-17T21:16:09.447Z,35.64
2022-08-17T21:19:22.852Z,35.64
2022-08-17T21:22:43.540Z,35.71
2022-08-17T21:26:12.729Z,35.88
2022-08-17T21:29:31.105Z,36.00
2022-08-17T21:32:38.109Z,36.38
2022-08-17T21:35:49.405Z,36.91
2022-08-17T21:39:00.338Z,37.25
2022-08-17T21:42:04.933Z,37.36
2022-08-17T21:45:30.478Z,37.55
2022-08-17T21:48:43.851Z,37.67
2022-08-17T21:51:51.068Z,37.88
2022-08-17T21:54:57.286Z,37.98
2022-08-17T21:58:22.108Z,38.14
2022-08-17T22:01:28.431Z,38.28
2022-08-17T22:04:37.672Z,38.33
2022-08-17T22:07:42.047Z,38.49
2022-08-17T22:10:48.960Z,38.48
